sensor_id;sensor_type;location;lat;lon;timestamp;temperature;humidity
10276;DHT22;5183;51.190;6.820;2024-03-23T00:55:34;6.30;99.90
10276;DHT22;5183;51.190;6.820;2024-03-23T00:58:01;6.30;99.90
10276;DHT22;5183;51.190;6.820;2024-03-23T01:00:26;6.20;99.90
10276;DHT22;5183;51.190;6.820;2024-03-23T01:02:53;6.20;99.90
10276;DHT22;5183;51.190;6.820;2024-03-23T01:05:19;6.20;99.90
10276;DHT22;5183;51.190;6.820;2024-03-23T01:07:46;6.20;99.90
10276;DHT22;5183;51.190;6.820;2024-03-23T01:10:12;6.20;99.90
10276;DHT22;5183;51.190;6.820;2024-03-23T01:12:40;6.20;99.90
10276;DHT22;5183;51.190;6.820;2024-03-23T01:15:07;6.20;99.90
10276;DHT22;5183;51.190;6.820;2024-03-23T01:17:33;6.20;99.90
10276;DHT22;5183;51.190;6.820;2024-03-23T01:19:59;6.30;99.90
10276;DHT22;5183;51.190;6.820;2024-03-23T01:22:26;6.30;99.90
10276;DHT22;5183;51.190;6.820;2024-03-23T01:24:52;6.20;99.90
10276;DHT22;5183;51.190;6.820;2024-03-23T01:27:19;6.30;99.90
10276;DHT22;5183;51.190;6.820;2024-03-23T01:29:46;6.30;99.90
10276;DHT22;5183;51.190;6.820;2024-03-23T01:32:13;6.30;99.90
10276;DHT22;5183;51.190;6.820;2024-03-23T01:34:39;6.30;99.90
10276;DHT22;5183;51.190;6.820;2024-03-23T01:37:06;6.30;99.90
10276;DHT22;5183;51.190;6.820;2024-03-23T01:39:31;6.30;99.90
10276;DHT22;5183;51.190;6.820;2024-03-23T01:41:58;6.30;99.90
10276;DHT22;5183;51.190;6.820;2024-03-23T01:44:24;6.10;99.90
10276;DHT22;5183;51.190;6.820;2024-03-23T01:46:52;6.10;99.90
10276;DHT22;5183;51.190;6.820;2024-03-23T01:49:18;6.00;99.90
10276;DHT22;5183;51.190;6.820;2024-03-23T01:51:45;5.80;99.90
10276;DHT22;5183;51.190;6.820;2024-03-23T01:54:11;5.70;99.90
10276;DHT22;5183;51.190;6.820;2024-03-23T01:56:38;5.60;99.90
10276;DHT22;5183;51.190;6.820;2024-03-23T01:59:05;5.60;99.90
10276;DHT22;5183;51.190;6.820;2024-03-23T02:01:32;5.50;99.90
10276;DHT22;5183;51.190;6.820;2024-03-23T02:03:59;5.50;99.90
10276;DHT22;5183;51.190;6.820;2024-03-23T02:06:26;5.40;99.90
10276;DHT22;5183;51.190;6.820;2024-03-23T02:08:53;5.40;99.90
10276;DHT22;5183;51.190;6.820;2024-03-23T02:11:20;5.40;99.90
10276;DHT22;5183;51.190;6.820;2024-03-23T02:13:46;5.40;99.90
10276;DHT22;5183;51.190;6.820;2024-03-23T02:16:13;5.40;99.90
10276;DHT22;5183;51.190;6.820;2024-03-23T02:18:39;5.40;99.90
10276;DHT22;5183;51.190;6.820;2024-03-23T02:21:07;5.40;99.90
10276;DHT22;5183;51.190;6.820;2024-03-23T02:23:34;5.40;99.90
10276;DHT22;5183;51.190;6.820;2024-03-23T02:26:01;5.40;99.90
10276;DHT22;5183;51.190;6.820;2024-03-23T02:28:27;5.40;99.90
10276;DHT22;5183;51.190;6.820;2024-03-23T02:30:54;5.40;99.90
10276;DHT22;5183;51.190;6.820;2024-03-23T02:33:20;5.40;99.90
10276;DHT22;5183;51.190;6.820;2024-03-23T02:35:47;5.40;99.90
10276;DHT22;5183;51.190;6.820;2024-03-23T02:38:13;5.40;99.90
10276;DHT22;5183;51.190;6.820;2024-03-23T02:40:41;5.50;99.90
10276;DHT22;5183;51.190;6.820;2024-03-23T02:43:07;5.50;99.90
10276;DHT22;5183;51.190;6.820;2024-03-23T02:45:34;5.50;99.90
10276;DHT22;5183;51.190;6.820;2024-03-23T02:48:00;5.50;99.90
10276;DHT22;5183;51.190;6.820;2024-03-23T02:50:26;5.50;99.90
10276;DHT22;5183;51.190;6.820;2024-03-23T02:52:52;5.50;99.90
10276;DHT22;5183;51.190;6.820;2024-03-23T02:55:19;5.40;99.90
10276;DHT22;5183;51.190;6.820;2024-03-23T02:57:46;5.40;99.90
10276;DHT22;5183;51.190;6.820;2024-03-23T03:00:13;5.30;99.90
10276;DHT22;5183;51.190;6.820;2024-03-23T03:02:39;5.30;99.90
10276;DHT22;5183;51.190;6.820;2024-03-23T03:05:06;5.20;99.90
10276;DHT22;5183;51.190;6.820;2024-03-23T03:07:34;5.30;99.90
10276;DHT22;5183;51.190;6.820;2024-03-23T03:10:01;5.40;99.90
10276;DHT22;5183;51.190;6.820;2024-03-23T03:12:27;5.40;99.90
10276;DHT22;5183;51.190;6.820;2024-03-23T03:14:55;5.40;99.90
10276;DHT22;5183;51.190;6.820;2024-03-23T03:17:21;5.40;99.90
10276;DHT22;5183;51.190;6.820;2024-03-23T03:19:49;5.40;99.90
10276;DHT22;5183;51.190;6.820;2024-03-23T03:22:14;5.40;99.90
10276;DHT22;5183;51.190;6.820;2024-03-23T03:24:41;5.40;99.90
10276;DHT22;5183;51.190;6.820;2024-03-23T03:27:07;5.40;99.90
10276;DHT22;5183;51.190;6.820;2024-03-23T03:29:35;5.40;99.90
10276;DHT22;5183;51.190;6.820;2024-03-23T03:32:03;5.30;99.90
10276;DHT22;5183;51.190;6.820;2024-03-23T03:34:30;5.30;99.90
10276;DHT22;5183;51.190;6.820;2024-03-23T03:36:56;5.40;99.90
10276;DHT22;5183;51.190;6.820;2024-03-23T03:39:23;5.30;99.90
10276;DHT22;5183;51.190;6.820;2024-03-23T03:41:50;5.30;99.90
10276;DHT22;5183;51.190;6.820;2024-03-23T03:44:17;5.40;99.90
10276;DHT22;5183;51.190;6.820;2024-03-23T03:46:43;5.40;99.90
10276;DHT22;5183;51.190;6.820;2024-03-23T03:49:11;5.30;99.90
10276;DHT22;5183;51.190;6.820;2024-03-23T03:51:37;5.30;99.90
10276;DHT22;5183;51.190;6.820;2024-03-23T03:54:04;5.40;99.90
10276;DHT22;5183;51.190;6.820;2024-03-23T03:56:30;5.40;99.90
10276;DHT22;5183;51.190;6.820;2024-03-23T03:58:56;5.40;99.90
10276;DHT22;5183;51.190;6.820;2024-03-23T04:01:22;5.30;99.90
10276;DHT22;5183;51.190;6.820;2024-03-23T04:03:49;5.40;99.90
10276;DHT22;5183;51.190;6.820;2024-03-23T04:06:20;5.40;99.90
10276;DHT22;5183;51.190;6.820;2024-03-23T04:08:47;5.40;99.90
10276;DHT22;5183;51.190;6.820;2024-03-23T04:11:12;5.40;99.90
10276;DHT22;5183;51.190;6.820;2024-03-23T04:13:39;5.40;99.90
10276;DHT22;5183;51.190;6.820;2024-03-23T04:16:07;5.40;99.90
10276;DHT22;5183;51.190;6.820;2024-03-23T04:18:34;5.40;99.90
10276;DHT22;5183;51.190;6.820;2024-03-23T04:21:00;5.40;99.90
10276;DHT22;5183;51.190;6.820;2024-03-23T04:23:28;5.40;99.90
10276;DHT22;5183;51.190;6.820;2024-03-23T04:25:54;5.30;99.90
10276;DHT22;5183;51.190;6.820;2024-03-23T04:28:21;5.30;99.90
10276;DHT22;5183;51.190;6.820;2024-03-23T04:30:47;5.30;99.90
10276;DHT22;5183;51.190;6.820;2024-03-23T04:33:14;5.40;99.90
10276;DHT22;5183;51.190;6.820;2024-03-23T04:35:40;5.40;99.90
10276;DHT22;5183;51.190;6.820;2024-03-23T04:38:07;5.40;99.90
10276;DHT22;5183;51.190;6.820;2024-03-23T04:40:35;5.40;99.90
10276;DHT22;5183;51.190;6.820;2024-03-23T04:43:02;5.40;99.90
10276;DHT22;5183;51.190;6.820;2024-03-23T04:45:30;5.30;99.90
10276;DHT22;5183;51.190;6.820;2024-03-23T04:47:56;5.40;99.90
10276;DHT22;5183;51.190;6.820;2024-03-23T04:50:23;5.30;99.90
10276;DHT22;5183;51.190;6.820;2024-03-23T04:52:50;5.40;99.90
10276;DHT22;5183;51.190;6.820;2024-03-23T04:55:17;5.40;99.90
10276;DHT22;5183;51.190;6.820;2024-03-23T04:57:44;5.40;99.90
10276;DHT22;5183;51.190;6.820;2024-03-23T05:00:12;5.40;99.90
10276;DHT22;5183;51.190;6.820;2024-03-23T05:02:43;5.40;99.90
10276;DHT22;5183;51.190;6.820;2024-03-23T05:05:10;5.40;99.90
10276;DHT22;5183;51.190;6.820;2024-03-23T05:07:36;5.30;99.90
10276;DHT22;5183;51.190;6.820;2024-03-23T05:10:04;5.30;99.90
10276;DHT22;5183;51.190;6.820;2024-03-23T05:12:30;5.30;99.90
10276;DHT22;5183;51.190;6.820;2024-03-23T05:14:58;5.30;99.90
10276;DHT22;5183;51.190;6.820;2024-03-23T05:17:24;5.30;99.90
10276;DHT22;5183;51.190;6.820;2024-03-23T05:19:50;5.40;99.90
10276;DHT22;5183;51.190;6.820;2024-03-23T05:22:16;5.40;99.90
10276;DHT22;5183;51.190;6.820;2024-03-23T05:24:45;5.30;99.90
10276;DHT22;5183;51.190;6.820;2024-03-23T05:27:11;5.30;99.90
10276;DHT22;5183;51.190;6.820;2024-03-23T05:29:37;5.20;99.90
10276;DHT22;5183;51.190;6.820;2024-03-23T05:32:05;5.30;99.90
10276;DHT22;5183;51.190;6.820;2024-03-23T05:34:32;5.30;99.90
10276;DHT22;5183;51.190;6.820;2024-03-23T05:36:58;5.30;99.90
10276;DHT22;5183;51.190;6.820;2024-03-23T05:39:25;5.30;99.90
10276;DHT22;5183;51.190;6.820;2024-03-23T05:41:50;5.30;99.90
10276;DHT22;5183;51.190;6.820;2024-03-23T05:44:17;5.30;99.90
10276;DHT22;5183;51.190;6.820;2024-03-23T05:46:43;5.30;99.90
10276;DHT22;5183;51.190;6.820;2024-03-23T05:49:15;5.30;99.90
10276;DHT22;5183;51.190;6.820;2024-03-23T05:51:41;5.30;99.90
10276;DHT22;5183;51.190;6.820;2024-03-23T05:54:08;5.30;99.90
10276;DHT22;5183;51.190;6.820;2024-03-23T05:56:34;5.40;99.90
10276;DHT22;5183;51.190;6.820;2024-03-23T05:59:01;5.30;99.90
10276;DHT22;5183;51.190;6.820;2024-03-23T06:01:29;5.20;99.90
10276;DHT22;5183;51.190;6.820;2024-03-23T06:03:56;5.20;99.90
10276;DHT22;5183;51.190;6.820;2024-03-23T06:06:24;5.20;99.90
10276;DHT22;5183;51.190;6.820;2024-03-23T06:08:50;5.20;99.90
10276;DHT22;5183;51.190;6.820;2024-03-23T06:11:17;5.20;99.90
10276;DHT22;5183;51.190;6.820;2024-03-23T06:13:43;5.10;99.90
10276;DHT22;5183;51.190;6.820;2024-03-23T06:16:09;5.20;99.90
10276;DHT22;5183;51.190;6.820;2024-03-23T06:18:35;5.20;99.90
10276;DHT22;5183;51.190;6.820;2024-03-23T06:21:03;5.20;99.90
10276;DHT22;5183;51.190;6.820;2024-03-23T06:23:30;5.20;99.90
10276;DHT22;5183;51.190;6.820;2024-03-23T06:25:57;5.10;99.90
10276;DHT22;5183;51.190;6.820;2024-03-23T06:28:23;5.10;99.90
10276;DHT22;5183;51.190;6.820;2024-03-23T06:30:49;5.20;99.90
10276;DHT22;5183;51.190;6.820;2024-03-23T06:33:15;5.20;99.90
10276;DHT22;5183;51.190;6.820;2024-03-23T06:35:42;5.20;99.90
10276;DHT22;5183;51.190;6.820;2024-03-23T06:38:08;5.20;99.90
10276;DHT22;5183;51.190;6.820;2024-03-23T06:40:37;5.10;99.90
10276;DHT22;5183;51.190;6.820;2024-03-23T06:43:03;5.10;99.90
10276;DHT22;5183;51.190;6.820;2024-03-23T06:45:31;5.20;99.90
10276;DHT22;5183;51.190;6.820;2024-03-23T06:47:57;5.20;99.90
10276;DHT22;5183;51.190;6.820;2024-03-23T06:50:24;5.20;99.90
10276;DHT22;5183;51.190;6.820;2024-03-23T06:52:52;5.20;99.90
10276;DHT22;5183;51.190;6.820;2024-03-23T06:55:17;5.30;99.90
10276;DHT22;5183;51.190;6.820;2024-03-23T06:57:46;5.30;99.90
10276;DHT22;5183;51.190;6.820;2024-03-23T07:00:12;5.40;99.90
10276;DHT22;5183;51.190;6.820;2024-03-23T07:02:41;5.40;99.90
10276;DHT22;5183;51.190;6.820;2024-03-23T07:05:07;5.40;99.90
10276;DHT22;5183;51.190;6.820;2024-03-23T07:07:34;5.40;99.90
10276;DHT22;5183;51.190;6.820;2024-03-23T07:10:00;5.40;99.90
10276;DHT22;5183;51.190;6.820;2024-03-23T07:12:27;5.50;99.90
10276;DHT22;5183;51.190;6.820;2024-03-23T07:14:54;5.50;99.90
10276;DHT22;5183;51.190;6.820;2024-03-23T07:17:21;5.60;99.90
10276;DHT22;5183;51.190;6.820;2024-03-23T07:19:47;5.60;99.90
10276;DHT22;5183;51.190;6.820;2024-03-23T07:22:14;5.70;99.90
10276;DHT22;5183;51.190;6.820;2024-03-23T07:24:40;5.70;99.90
10276;DHT22;5183;51.190;6.820;2024-03-23T07:27:08;5.80;99.90
10276;DHT22;5183;51.190;6.820;2024-03-23T07:29:35;5.80;99.90
10276;DHT22;5183;51.190;6.820;2024-03-23T07:32:04;5.80;99.90
10276;DHT22;5183;51.190;6.820;2024-03-23T07:34:30;5.90;99.90
10276;DHT22;5183;51.190;6.820;2024-03-23T07:36:57;5.90;99.90
10276;DHT22;5183;51.190;6.820;2024-03-23T07:39:22;5.90;99.90
10276;DHT22;5183;51.190;6.820;2024-03-23T07:41:50;6.00;99.90
10276;DHT22;5183;51.190;6.820;2024-03-23T07:44:16;6.00;99.90
10276;DHT22;5183;51.190;6.820;2024-03-23T07:46:43;6.00;99.90
10276;DHT22;5183;51.190;6.820;2024-03-23T07:49:10;6.10;99.90
10276;DHT22;5183;51.190;6.820;2024-03-23T07:51:37;6.20;99.90
10276;DHT22;5183;51.190;6.820;2024-03-23T07:54:04;6.20;99.90
10276;DHT22;5183;51.190;6.820;2024-03-23T07:56:31;6.20;99.90
10276;DHT22;5183;51.190;6.820;2024-03-23T07:58:57;6.30;99.90
10276;DHT22;5183;51.190;6.820;2024-03-23T08:01:24;6.40;99.90
10276;DHT22;5183;51.190;6.820;2024-03-23T08:03:50;6.30;99.90
10276;DHT22;5183;51.190;6.820;2024-03-23T08:06:20;6.40;99.90
10276;DHT22;5183;51.190;6.820;2024-03-23T08:08:48;6.40;99.90
10276;DHT22;5183;51.190;6.820;2024-03-23T08:11:16;6.40;99.90
10276;DHT22;5183;51.190;6.820;2024-03-23T08:13:42;6.50;99.90
10276;DHT22;5183;51.190;6.820;2024-03-23T08:16:11;6.50;99.90
10276;DHT22;5183;51.190;6.820;2024-03-23T08:18:37;6.50;99.90
10276;DHT22;5183;51.190;6.820;2024-03-23T08:21:05;6.60;99.90
10276;DHT22;5183;51.190;6.820;2024-03-23T08:23:34;6.80;99.90
10276;DHT22;5183;51.190;6.820;2024-03-23T08:26:02;7.10;96.10
10276;DHT22;5183;51.190;6.820;2024-03-23T08:28:29;7.20;16.40
10276;DHT22;5183;51.190;6.820;2024-03-23T08:30:56;7.30;1.00
10276;DHT22;5183;51.190;6.820;2024-03-23T08:33:23;7.20;28.80
10276;DHT22;5183;51.190;6.820;2024-03-23T08:35:54;7.20;7.90
10276;DHT22;5183;51.190;6.820;2024-03-23T08:38:20;7.40;1.00
10276;DHT22;5183;51.190;6.820;2024-03-23T08:40:56;7.60;1.00
10276;DHT22;5183;51.190;6.820;2024-03-23T08:43:22;7.70;99.90
10276;DHT22;5183;51.190;6.820;2024-03-23T08:45:49;7.60;99.90
10276;DHT22;5183;51.190;6.820;2024-03-23T08:48:15;7.60;99.90
10276;DHT22;5183;51.190;6.820;2024-03-23T08:50:43;7.80;99.90
10276;DHT22;5183;51.190;6.820;2024-03-23T08:53:09;8.10;4.00
10276;DHT22;5183;51.190;6.820;2024-03-23T08:55:36;8.20;1.00
10276;DHT22;5183;51.190;6.820;2024-03-23T08:58:03;8.10;1.00
10276;DHT22;5183;51.190;6.820;2024-03-23T09:00:30;8.20;1.00
10276;DHT22;5183;51.190;6.820;2024-03-23T09:02:57;8.10;1.00
10276;DHT22;5183;51.190;6.820;2024-03-23T09:05:24;8.00;1.00
10276;DHT22;5183;51.190;6.820;2024-03-23T09:07:49;8.00;1.00
10276;DHT22;5183;51.190;6.820;2024-03-23T09:10:16;7.80;1.00
10276;DHT22;5183;51.190;6.820;2024-03-23T09:12:42;7.70;1.00
10276;DHT22;5183;51.190;6.820;2024-03-23T09:15:10;7.70;1.00
10276;DHT22;5183;51.190;6.820;2024-03-23T09:17:36;7.80;1.00
10276;DHT22;5183;51.190;6.820;2024-03-23T09:20:04;7.80;1.00
10276;DHT22;5183;51.190;6.820;2024-03-23T09:22:30;7.80;1.00
10276;DHT22;5183;51.190;6.820;2024-03-23T09:24:57;7.90;1.00
10276;DHT22;5183;51.190;6.820;2024-03-23T09:27:22;8.00;1.00
10276;DHT22;5183;51.190;6.820;2024-03-23T09:29:49;8.20;1.00
10276;DHT22;5183;51.190;6.820;2024-03-23T09:32:16;8.30;1.00
10276;DHT22;5183;51.190;6.820;2024-03-23T09:34:43;8.40;99.90
10276;DHT22;5183;51.190;6.820;2024-03-23T09:37:09;8.40;99.90
10276;DHT22;5183;51.190;6.820;2024-03-23T09:39:37;8.50;99.90
10276;DHT22;5183;51.190;6.820;2024-03-23T09:42:04;8.50;99.90
10276;DHT22;5183;51.190;6.820;2024-03-23T09:44:31;8.50;99.90
10276;DHT22;5183;51.190;6.820;2024-03-23T09:46:57;8.50;99.90
10276;DHT22;5183;51.190;6.820;2024-03-23T09:49:25;8.60;99.90
10276;DHT22;5183;51.190;6.820;2024-03-23T09:51:51;8.70;99.90
10276;DHT22;5183;51.190;6.820;2024-03-23T09:54:20;9.00;99.90
10276;DHT22;5183;51.190;6.820;2024-03-23T09:56:47;9.20;99.90
10276;DHT22;5183;51.190;6.820;2024-03-23T09:59:14;9.20;99.90
10276;DHT22;5183;51.190;6.820;2024-03-23T10:01:40;9.10;97.90
10276;DHT22;5183;51.190;6.820;2024-03-23T10:04:07;9.00;42.10
10276;DHT22;5183;51.190;6.820;2024-03-23T10:06:34;8.80;57.60
10276;DHT22;5183;51.190;6.820;2024-03-23T10:09:02;8.60;47.70
10276;DHT22;5183;51.190;6.820;2024-03-23T10:11:42;8.50;32.80
10276;DHT22;5183;51.190;6.820;2024-03-23T10:14:09;8.50;17.20
10276;DHT22;5183;51.190;6.820;2024-03-23T10:16:35;8.70;1.00
10276;DHT22;5183;51.190;6.820;2024-03-23T10:19:02;8.80;1.00
10276;DHT22;5183;51.190;6.820;2024-03-23T10:21:28;9.00;1.00
10276;DHT22;5183;51.190;6.820;2024-03-23T10:24:08;9.10;1.00
10276;DHT22;5183;51.190;6.820;2024-03-23T10:26:34;9.20;1.00
10276;DHT22;5183;51.190;6.820;2024-03-23T10:29:02;9.40;1.00
10276;DHT22;5183;51.190;6.820;2024-03-23T10:31:33;9.60;1.00
10276;DHT22;5183;51.190;6.820;2024-03-23T10:34:02;9.60;1.00
10276;DHT22;5183;51.190;6.820;2024-03-23T10:36:29;9.00;1.00
10276;DHT22;5183;51.190;6.820;2024-03-23T10:38:57;8.20;1.00
10276;DHT22;5183;51.190;6.820;2024-03-23T10:41:26;7.80;99.90
10276;DHT22;5183;51.190;6.820;2024-03-23T10:43:55;7.40;99.90
10276;DHT22;5183;51.190;6.820;2024-03-23T10:46:23;7.00;99.90
10276;DHT22;5183;51.190;6.820;2024-03-23T10:48:50;6.70;99.90
10276;DHT22;5183;51.190;6.820;2024-03-23T10:51:16;6.60;99.90
10276;DHT22;5183;51.190;6.820;2024-03-23T10:53:44;6.50;99.90
10276;DHT22;5183;51.190;6.820;2024-03-23T10:56:12;6.30;1.00
10276;DHT22;5183;51.190;6.820;2024-03-23T10:58:42;6.00;1.00
10276;DHT22;5183;51.190;6.820;2024-03-23T11:01:10;5.90;99.90
10276;DHT22;5183;51.190;6.820;2024-03-23T11:03:38;5.80;1.00
10276;DHT22;5183;51.190;6.820;2024-03-23T11:06:05;5.60;1.00
10276;DHT22;5183;51.190;6.820;2024-03-23T11:08:33;5.60;99.90
10276;DHT22;5183;51.190;6.820;2024-03-23T11:11:14;5.50;36.70
10276;DHT22;5183;51.190;6.820;2024-03-23T11:13:41;5.40;1.00
10276;DHT22;5183;51.190;6.820;2024-03-23T11:16:14;5.40;90.90
10276;DHT22;5183;51.190;6.820;2024-03-23T11:18:41;5.40;1.00
10276;DHT22;5183;51.190;6.820;2024-03-23T11:21:07;5.50;1.00
10276;DHT22;5183;51.190;6.820;2024-03-23T11:23:34;5.70;99.90
10276;DHT22;5183;51.190;6.820;2024-03-23T11:26:00;5.80;99.90
10276;DHT22;5183;51.190;6.820;2024-03-23T11:28:29;5.80;1.00
10276;DHT22;5183;51.190;6.820;2024-03-23T11:30:55;5.80;99.90
10276;DHT22;5183;51.190;6.820;2024-03-23T11:33:22;5.80;1.00
10276;DHT22;5183;51.190;6.820;2024-03-23T11:35:48;5.90;24.50
10276;DHT22;5183;51.190;6.820;2024-03-23T11:38:18;5.90;1.00
10276;DHT22;5183;51.190;6.820;2024-03-23T11:40:45;6.00;1.00
10276;DHT22;5183;51.190;6.820;2024-03-23T11:43:13;6.10;99.90
10276;DHT22;5183;51.190;6.820;2024-03-23T11:45:42;6.20;99.90
10276;DHT22;5183;51.190;6.820;2024-03-23T11:48:09;6.40;99.90
10276;DHT22;5183;51.190;6.820;2024-03-23T11:50:40;6.70;1.00
10276;DHT22;5183;51.190;6.820;2024-03-23T11:53:17;7.00;1.00
10276;DHT22;5183;51.190;6.820;2024-03-23T11:55:48;7.50;99.90
10276;DHT22;5183;51.190;6.820;2024-03-23T11:58:16;8.00;99.90
10276;DHT22;5183;51.190;6.820;2024-03-23T12:00:50;7.90;99.90
10276;DHT22;5183;51.190;6.820;2024-03-23T12:03:17;6.80;99.90
10276;DHT22;5183;51.190;6.820;2024-03-23T12:05:48;6.20;1.00
10276;DHT22;5183;51.190;6.820;2024-03-23T12:08:20;5.90;1.00
10276;DHT22;5183;51.190;6.820;2024-03-23T12:10:48;5.80;1.00
10276;DHT22;5183;51.190;6.820;2024-03-23T12:13:16;5.70;1.00
10276;DHT22;5183;51.190;6.820;2024-03-23T12:15:44;5.80;1.00
10276;DHT22;5183;51.190;6.820;2024-03-23T12:18:12;5.70;1.00
10276;DHT22;5183;51.190;6.820;2024-03-23T12:20:38;5.80;1.00
10276;DHT22;5183;51.190;6.820;2024-03-23T12:23:06;5.90;99.90
10276;DHT22;5183;51.190;6.820;2024-03-23T12:25:32;6.00;99.90
10276;DHT22;5183;51.190;6.820;2024-03-23T12:27:59;6.20;99.90
10276;DHT22;5183;51.190;6.820;2024-03-23T12:30:25;6.40;99.90
10276;DHT22;5183;51.190;6.820;2024-03-23T12:32:53;6.60;99.90
10276;DHT22;5183;51.190;6.820;2024-03-23T12:35:19;6.70;99.90
10276;DHT22;5183;51.190;6.820;2024-03-23T12:37:46;6.80;99.90
10276;DHT22;5183;51.190;6.820;2024-03-23T12:40:12;6.80;99.90
10276;DHT22;5183;51.190;6.820;2024-03-23T12:42:39;6.60;99.90
10276;DHT22;5183;51.190;6.820;2024-03-23T12:45:05;6.50;99.90
10276;DHT22;5183;51.190;6.820;2024-03-23T12:47:32;6.60;99.90
10276;DHT22;5183;51.190;6.820;2024-03-23T12:50:00;6.60;94.30
10276;DHT22;5183;51.190;6.820;2024-03-23T12:52:26;6.90;99.90
10276;DHT22;5183;51.190;6.820;2024-03-23T12:54:54;7.40;21.60
10276;DHT22;5183;51.190;6.820;2024-03-23T12:57:23;7.80;11.50
10276;DHT22;5183;51.190;6.820;2024-03-23T12:59:50;8.10;1.00
10276;DHT22;5183;51.190;6.820;2024-03-23T13:02:18;8.40;1.00
10276;DHT22;5183;51.190;6.820;2024-03-23T13:04:45;8.50;1.00
10276;DHT22;5183;51.190;6.820;2024-03-23T13:07:14;8.30;1.00
10276;DHT22;5183;51.190;6.820;2024-03-23T13:09:40;8.40;1.00
10276;DHT22;5183;51.190;6.820;2024-03-23T13:12:07;8.30;1.00
10276;DHT22;5183;51.190;6.820;2024-03-23T13:14:33;8.40;1.00
10276;DHT22;5183;51.190;6.820;2024-03-23T13:17:00;8.60;1.00
10276;DHT22;5183;51.190;6.820;2024-03-23T13:19:27;8.50;1.00
10276;DHT22;5183;51.190;6.820;2024-03-23T13:21:56;7.50;99.90
10276;DHT22;5183;51.190;6.820;2024-03-23T13:24:24;6.20;99.90
10276;DHT22;5183;51.190;6.820;2024-03-23T13:26:51;5.60;1.00
10276;DHT22;5183;51.190;6.820;2024-03-23T13:29:17;5.50;99.90
10276;DHT22;5183;51.190;6.820;2024-03-23T13:31:44;5.60;1.00
10276;DHT22;5183;51.190;6.820;2024-03-23T13:34:10;5.90;99.90
10276;DHT22;5183;51.190;6.820;2024-03-23T13:36:38;6.20;99.90
10276;DHT22;5183;51.190;6.820;2024-03-23T13:39:04;6.50;1.00
10276;DHT22;5183;51.190;6.820;2024-03-23T13:41:38;6.80;99.90
10276;DHT22;5183;51.190;6.820;2024-03-23T13:44:04;7.00;99.90
10276;DHT22;5183;51.190;6.820;2024-03-23T13:46:31;7.20;99.90
10276;DHT22;5183;51.190;6.820;2024-03-23T13:48:57;7.10;99.90
10276;DHT22;5183;51.190;6.820;2024-03-23T13:51:25;7.00;99.90
10276;DHT22;5183;51.190;6.820;2024-03-23T13:53:52;6.90;99.90
10276;DHT22;5183;51.190;6.820;2024-03-23T13:56:19;6.90;99.90
10276;DHT22;5183;51.190;6.820;2024-03-23T13:58:47;6.90;99.90
10276;DHT22;5183;51.190;6.820;2024-03-23T14:01:14;6.90;99.90
10276;DHT22;5183;51.190;6.820;2024-03-23T14:03:40;7.00;99.90
10276;DHT22;5183;51.190;6.820;2024-03-23T14:06:07;7.30;99.90
10276;DHT22;5183;51.190;6.820;2024-03-23T14:08:34;7.50;37.60
10276;DHT22;5183;51.190;6.820;2024-03-23T14:11:02;7.60;27.10
10276;DHT22;5183;51.190;6.820;2024-03-23T14:13:29;7.80;14.40
10276;DHT22;5183;51.190;6.820;2024-03-23T14:15:58;7.80;4.70
10276;DHT22;5183;51.190;6.820;2024-03-23T14:18:24;8.00;5.60
10276;DHT22;5183;51.190;6.820;2024-03-23T14:20:52;8.20;39.00
10276;DHT22;5183;51.190;6.820;2024-03-23T14:23:18;8.30;16.10
10276;DHT22;5183;51.190;6.820;2024-03-23T14:25:45;8.30;1.00
10276;DHT22;5183;51.190;6.820;2024-03-23T14:28:11;8.50;1.00
10276;DHT22;5183;51.190;6.820;2024-03-23T14:30:41;8.70;1.00
10276;DHT22;5183;51.190;6.820;2024-03-23T14:33:08;8.30;1.00
10276;DHT22;5183;51.190;6.820;2024-03-23T14:35:36;8.00;1.00
10276;DHT22;5183;51.190;6.820;2024-03-23T14:38:02;7.40;99.90
10276;DHT22;5183;51.190;6.820;2024-03-23T14:40:29;6.60;99.90
10276;DHT22;5183;51.190;6.820;2024-03-23T14:42:55;6.20;1.00
10276;DHT22;5183;51.190;6.820;2024-03-23T14:45:22;5.90;1.00
10276;DHT22;5183;51.190;6.820;2024-03-23T14:47:50;5.80;1.00
10276;DHT22;5183;51.190;6.820;2024-03-23T14:50:18;5.80;1.00
10276;DHT22;5183;51.190;6.820;2024-03-23T14:52:44;5.90;1.00
10276;DHT22;5183;51.190;6.820;2024-03-23T14:55:12;5.90;1.00
10276;DHT22;5183;51.190;6.820;2024-03-23T14:57:37;6.00;1.00
10276;DHT22;5183;51.190;6.820;2024-03-23T15:02:33;6.20;99.90
10276;DHT22;5183;51.190;6.820;2024-03-23T15:05:00;6.30;99.90
10276;DHT22;5183;51.190;6.820;2024-03-23T15:07:27;6.30;99.90
10276;DHT22;5183;51.190;6.820;2024-03-23T15:09:54;6.50;99.90
10276;DHT22;5183;51.190;6.820;2024-03-23T15:12:21;6.50;99.90
10276;DHT22;5183;51.190;6.820;2024-03-23T15:14:48;6.70;99.90
10276;DHT22;5183;51.190;6.820;2024-03-23T15:17:14;6.90;99.90
10276;DHT22;5183;51.190;6.820;2024-03-23T15:19:41;7.10;99.90
10276;DHT22;5183;51.190;6.820;2024-03-23T15:22:08;7.30;17.30
10276;DHT22;5183;51.190;6.820;2024-03-23T15:24:36;7.40;1.00
10276;DHT22;5183;51.190;6.820;2024-03-23T15:27:03;7.50;1.00
10276;DHT22;5183;51.190;6.820;2024-03-23T15:29:29;7.60;20.30
10276;DHT22;5183;51.190;6.820;2024-03-23T15:31:56;7.90;1.00
10276;DHT22;5183;51.190;6.820;2024-03-23T15:34:22;8.20;17.60
10276;DHT22;5183;51.190;6.820;2024-03-23T15:36:48;8.30;1.00
10276;DHT22;5183;51.190;6.820;2024-03-23T15:39:16;8.60;1.00
10276;DHT22;5183;51.190;6.820;2024-03-23T15:41:45;8.60;1.00
10276;DHT22;5183;51.190;6.820;2024-03-23T15:44:12;8.60;1.00
10276;DHT22;5183;51.190;6.820;2024-03-23T15:46:38;8.60;1.00
10276;DHT22;5183;51.190;6.820;2024-03-23T15:49:05;8.60;1.00
10276;DHT22;5183;51.190;6.820;2024-03-23T15:51:31;8.40;1.00
10276;DHT22;5183;51.190;6.820;2024-03-23T15:54:00;8.30;1.00
10276;DHT22;5183;51.190;6.820;2024-03-23T15:56:26;8.30;1.00
10276;DHT22;5183;51.190;6.820;2024-03-23T15:58:54;8.30;1.00
10276;DHT22;5183;51.190;6.820;2024-03-23T16:01:20;8.30;1.00
10276;DHT22;5183;51.190;6.820;2024-03-23T16:03:47;8.20;1.00
10276;DHT22;5183;51.190;6.820;2024-03-23T16:06:13;8.10;1.00
10276;DHT22;5183;51.190;6.820;2024-03-23T16:08:40;7.90;1.00
10276;DHT22;5183;51.190;6.820;2024-03-23T16:11:07;7.60;1.00
10276;DHT22;5183;51.190;6.820;2024-03-23T16:13:34;7.50;1.00
10276;DHT22;5183;51.190;6.820;2024-03-23T16:16:03;7.30;1.00
10276;DHT22;5183;51.190;6.820;2024-03-23T16:18:32;7.20;1.00
10276;DHT22;5183;51.190;6.820;2024-03-23T16:20:59;7.20;1.00
10276;DHT22;5183;51.190;6.820;2024-03-23T16:23:26;7.20;1.00
10276;DHT22;5183;51.190;6.820;2024-03-23T16:25:54;7.20;1.00
10276;DHT22;5183;51.190;6.820;2024-03-23T16:28:25;7.30;1.00
10276;DHT22;5183;51.190;6.820;2024-03-23T16:30:58;7.60;1.00
10276;DHT22;5183;51.190;6.820;2024-03-23T16:33:27;8.00;1.00
10276;DHT22;5183;51.190;6.820;2024-03-23T16:35:57;8.50;1.00
10276;DHT22;5183;51.190;6.820;2024-03-23T16:38:25;8.60;1.00
10276;DHT22;5183;51.190;6.820;2024-03-23T16:40:57;8.60;1.00
10276;DHT22;5183;51.190;6.820;2024-03-23T16:43:25;8.70;1.00
10276;DHT22;5183;51.190;6.820;2024-03-23T16:45:55;8.80;1.00
10276;DHT22;5183;51.190;6.820;2024-03-23T16:48:23;8.70;1.00
10276;DHT22;5183;51.190;6.820;2024-03-23T16:50:50;8.60;1.00
10276;DHT22;5183;51.190;6.820;2024-03-23T16:53:17;8.80;1.00
10276;DHT22;5183;51.190;6.820;2024-03-23T16:55:43;8.70;1.00
10276;DHT22;5183;51.190;6.820;2024-03-23T16:58:10;8.70;1.00
10276;DHT22;5183;51.190;6.820;2024-03-23T17:00:36;8.70;1.00
10276;DHT22;5183;51.190;6.820;2024-03-23T17:03:04;8.70;1.00